createdAt,value
2022-10-06T00:02:32.744Z,101380.22
2022-10-06T00:05:04.996Z,101375.47
2022-10-06T00:07:38.635Z,101386.09
2022-10-06T00:10:12.315Z,101392.88
2022-10-06T00:12:46.036Z,101389.81
2022-10-06T00:15:21.157Z,101386.63
2022-10-06T00:17:56.541Z,101393.22
2022-10-06T00:20:29.957Z,101392.91
2022-10-06T00:23:02.436Z,101407.28
2022-10-06T00:25:34.485Z,101401.53
2022-10-06T00:28:06.884Z,101405.72
2022-10-06T00:30:38.956Z,101408.06
2022-10-06T00:33:19.445Z,101403.38
2022-10-06T00:35:58.996Z,101407.72
2022-10-06T00:38:31.821Z,101406.72
2022-10-06T00:41:04.357Z,101413.31
2022-10-06T00:43:48.117Z,101408.69
2022-10-06T00:46:26.554Z,101413.88
2022-10-06T00:49:09.120Z,101411.06
2022-10-06T00:51:46.005Z,101416.06
2022-10-06T00:54:19.835Z,101414.50
2022-10-06T00:56:52.155Z,101420.88
2022-10-06T00:59:24.555Z,101414.81
2022-10-06T01:02:00.276Z,101419.13
2022-10-06T01:04:39.635Z,101418.00
2022-10-06T01:07:11.836Z,101430.44
2022-10-06T01:09:44.436Z,101434.31
2022-10-06T01:12:17.357Z,101426.81
2022-10-06T01:14:49.884Z,101440.25
2022-10-06T01:17:25.355Z,101434.44
2022-10-06T01:20:03.476Z,101449.22
2022-10-06T01:22:40.317Z,101438.84
2022-10-06T01:25:15.117Z,101435.31
2022-10-06T01:27:51.716Z,101433.31
2022-10-06T01:30:28.318Z,101439.88
2022-10-06T01:33:00.235Z,101446.22
2022-10-06T01:35:32.359Z,101451.19
2022-10-06T01:38:07.116Z,101446.91
2022-10-06T01:40:39.236Z,101446.53
2022-10-06T01:43:11.285Z,101446.31
2022-10-06T01:45:43.275Z,101453.22
2022-10-06T01:48:15.116Z,101448.31
2022-10-06T01:50:47.198Z,101443.72
2022-10-06T01:53:21.916Z,101444.66
2022-10-06T01:55:54.116Z,101444.84
2022-10-06T01:58:26.151Z,101454.56
2022-10-06T02:00:58.596Z,101463.19
2022-10-06T02:03:30.600Z,101453.28
2022-10-06T02:06:02.805Z,101448.78
2022-10-06T02:08:38.117Z,101452.88
2022-10-06T02:11:12.401Z,101447.69
2022-10-06T02:13:44.677Z,101453.16
2022-10-06T02:16:17.000Z,101454.38
2022-10-06T02:18:48.835Z,101455.25
2022-10-06T02:21:23.396Z,101457.25
2022-10-06T02:23:58.035Z,101458.66
2022-10-06T02:26:30.398Z,101467.63
2022-10-06T02:29:02.435Z,101469.13
2022-10-06T02:31:34.674Z,101475.22
2022-10-06T02:34:06.877Z,101474.19
2022-10-06T02:36:39.036Z,101472.16
2022-10-06T02:39:14.076Z,101479.78
2022-10-06T02:41:46.875Z,101477.44
2022-10-06T02:44:19.118Z,101477.03
2022-10-06T02:46:52.588Z,101482.50
2022-10-06T02:49:24.324Z,101484.50
2022-10-06T02:51:56.485Z,101481.81
2022-10-06T02:54:30.996Z,101487.03
2022-10-06T02:57:03.115Z,101486.69
2022-10-06T02:59:35.517Z,101493.50
2022-10-06T03:02:08.101Z,101489.56
2022-10-06T03:04:40.414Z,101491.91
2022-10-06T03:07:12.755Z,101508.63
2022-10-06T03:09:47.595Z,101513.69
2022-10-06T03:12:20.029Z,101515.88
2022-10-06T03:14:52.525Z,101520.09
2022-10-06T03:17:24.599Z,101510.78
2022-10-06T03:19:57.198Z,101530.06
2022-10-06T03:22:29.797Z,101527.53
2022-10-06T03:25:04.564Z,101536.75
2022-10-06T03:27:37.198Z,101537.41
2022-10-06T03:30:11.035Z,101553.66
2022-10-06T03:32:43.365Z,101544.69
2022-10-06T03:35:15.638Z,101557.69
2022-10-06T03:37:48.077Z,101562.88
2022-10-06T03:40:22.880Z,101583.31
2022-10-06T03:42:55.325Z,101586.25
2022-10-06T03:45:27.538Z,101586.56
2022-10-06T03:48:00.716Z,101602.59
2022-10-06T03:50:32.877Z,101610.94
2022-10-06T03:53:05.558Z,101614.91
2022-10-06T03:55:40.275Z,101611.22
2022-10-06T03:58:12.838Z,101606.94
2022-10-06T04:00:46.687Z,101617.31
2022-10-06T04:03:23.165Z,101622.91
2022-10-06T04:06:00.075Z,101636.50
2022-10-06T04:08:33.955Z,101650.34
2022-10-06T04:11:14.724Z,101635.16
2022-10-06T04:13:48.395Z,101651.00
2022-10-06T04:16:22.882Z,101664.78
2022-10-06T04:19:03.518Z,101675.16
2022-10-06T04:21:38.796Z,101679.75
2022-10-06T04:24:12.876Z,101676.69
2022-10-06T04:26:50.276Z,101690.25
2022-10-06T04:29:22.914Z,101686.59
2022-10-06T04:31:55.202Z,101686.81
2022-10-06T04:34:28.395Z,101689.28
2022-10-06T04:37:00.595Z,101679.06
2022-10-06T04:39:33.115Z,101684.53
2022-10-06T04:42:08.076Z,101691.84
2022-10-06T04:44:40.646Z,101694.53
2022-10-06T04:47:12.758Z,101724.19
2022-10-06T04:49:45.118Z,101722.16
2022-10-06T04:52:17.844Z,101711.63
2022-10-06T04:54:50.197Z,101708.75
2022-10-06T04:57:25.165Z,101724.97
2022-10-06T05:00:14.629Z,101730.84
2022-10-06T05:02:47.356Z,101742.31
2022-10-06T05:05:20.036Z,101740.94
2022-10-06T05:07:52.524Z,101742.66
2022-10-06T05:10:25.036Z,101754.00
2022-10-06T05:12:59.917Z,101760.59
2022-10-06T05:15:32.478Z,101784.84
2022-10-06T05:18:04.716Z,101786.03
2022-10-06T05:20:37.277Z,101793.63
2022-10-06T05:23:10.918Z,101792.28
2022-10-06T05:25:43.276Z,101800.94
2022-10-06T05:28:21.191Z,101806.31
2022-10-06T05:31:00.126Z,101804.66
2022-10-06T05:33:34.405Z,101813.28
2022-10-06T05:36:10.165Z,101830.22
2022-10-06T05:38:43.287Z,101837.16
2022-10-06T05:41:17.527Z,101844.75
2022-10-06T05:43:52.519Z,101853.91
2022-10-06T05:46:33.396Z,101859.47
2022-10-06T05:49:07.481Z,101864.56
2022-10-06T05:51:41.756Z,101878.78
2022-10-06T05:54:14.602Z,101887.44
2022-10-06T05:56:47.212Z,101897.06
2022-10-06T05:59:22.359Z,101901.91
2022-10-06T06:01:55.417Z,101908.59
2022-10-06T06:04:27.717Z,101930.25
2022-10-06T06:07:00.201Z,101921.03
2022-10-06T06:09:32.596Z,101929.88
2022-10-06T06:12:05.320Z,101940.19
2022-10-06T06:14:52.450Z,101946.66
2022-10-06T06:17:28.757Z,101952.38
2022-10-06T06:20:00.917Z,101967.50
2022-10-06T06:22:33.438Z,101969.88
2022-10-06T06:25:05.718Z,101971.78
2022-10-06T06:27:39.479Z,101999.81
2022-10-06T06:30:17.237Z,101986.50
2022-10-06T06:32:50.276Z,101998.47
2022-10-06T06:35:22.595Z,102005.84
2022-10-06T06:37:55.275Z,102009.44
2022-10-06T06:40:27.598Z,102026.53
2022-10-06T06:43:00.038Z,102019.97
2022-10-06T06:45:34.957Z,102027.22
2022-10-06T06:48:08.006Z,102028.53
2022-10-06T06:50:40.325Z,102036.13
2022-10-06T06:53:16.153Z,102045.59
2022-10-06T06:55:53.035Z,102055.94
2022-10-06T06:58:25.608Z,102056.88
2022-10-06T07:01:08.164Z,102057.47
2022-10-06T07:03:58.055Z,102058.19
2022-10-06T07:06:32.598Z,102070.75
2022-10-06T07:09:05.120Z,102080.72
2022-10-06T07:11:38.956Z,102086.34
2022-10-06T07:14:13.518Z,102091.31
2022-10-06T07:17:00.557Z,102095.69
2022-10-06T07:19:45.196Z,102100.53
2022-10-06T07:22:33.275Z,102103.03
2022-10-06T07:25:15.356Z,102110.38
2022-10-06T07:27:51.315Z,102115.25
2022-10-06T07:30:26.157Z,102122.88
2022-10-06T07:33:01.077Z,102145.25
2022-10-06T07:35:33.717Z,102136.16
2022-10-06T07:38:08.268Z,102130.53
2022-10-06T07:40:46.187Z,102135.88
2022-10-06T07:43:48.277Z,102141.19
2022-10-06T07:46:20.976Z,102149.53
2022-10-06T07:48:55.959Z,102144.81
2022-10-06T07:51:28.646Z,102154.38
2022-10-06T07:54:00.962Z,102150.69
2022-10-06T07:56:33.639Z,102171.94
2022-10-06T07:59:06.238Z,102163.81
2022-10-06T08:01:38.926Z,102154.88
2022-10-06T08:04:13.961Z,102164.81
2022-10-06T08:06:47.881Z,102176.59
2022-10-06T08:09:21.084Z,102185.06
2022-10-06T08:11:53.613Z,102181.34
2022-10-06T08:14:25.878Z,102189.88
2022-10-06T08:16:59.277Z,102194.94
2022-10-06T08:19:51.597Z,102191.75
2022-10-06T08:22:27.718Z,102200.06
2022-10-06T08:25:08.519Z,102209.56
2022-10-06T08:27:44.440Z,102210.59
2022-10-06T08:30:17.359Z,102213.59
2022-10-06T08:32:50.238Z,102224.78
2022-10-06T08:35:25.206Z,102223.63
2022-10-06T08:37:57.716Z,102227.63
2022-10-06T08:40:30.835Z,102236.19
2022-10-06T08:43:05.557Z,102243.53
2022-10-06T08:45:43.491Z,102252.44
2022-10-06T08:48:20.319Z,102241.53
2022-10-06T08:51:06.838Z,102247.94
2022-10-06T08:53:47.200Z,102267.75
2022-10-06T08:56:27.361Z,102258.97
2022-10-06T08:59:04.558Z,102259.63
2022-10-06T09:01:45.308Z,102275.03
2022-10-06T09:04:26.759Z,102270.47
2022-10-06T09:07:11.344Z,102278.81
2022-10-06T09:10:07.761Z,102278.19
2022-10-06T09:12:45.600Z,102274.88
2022-10-06T09:15:36.216Z,102284.09
2022-10-06T09:18:15.812Z,102283.91
2022-10-06T09:20:54.357Z,102310.03
2022-10-06T09:23:46.414Z,102304.47
2022-10-06T09:26:22.641Z,102300.06
2022-10-06T09:28:56.039Z,102309.53
2022-10-06T09:31:30.466Z,102304.28
2022-10-06T09:34:07.683Z,102286.19
2022-10-06T09:37:03.174Z,102310.69
2022-10-06T09:39:39.759Z,102294.16
2022-10-06T09:42:18.559Z,102305.66
2022-10-06T09:45:00.477Z,102320.03
2022-10-06T09:47:45.384Z,102322.31
2022-10-06T09:50:26.518Z,102315.16
2022-10-06T09:53:17.081Z,102314.34
2022-10-06T09:55:55.896Z,102319.31
2022-10-06T09:58:38.056Z,102317.97
2022-10-06T10:01:11.601Z,102329.25
2022-10-06T10:04:22.103Z,102329.66
2022-10-06T10:06:44.104Z,102328.53
2022-10-06T10:09:32.456Z,102329.81
2022-10-06T10:12:30.296Z,102330.22
2022-10-06T10:15:05.434Z,102326.31
2022-10-06T10:17:50.075Z,102342.91
2022-10-06T10:20:34.557Z,102332.81
2022-10-06T10:23:23.386Z,102338.09
2022-10-06T10:26:18.600Z,102341.63
2022-10-06T10:29:33.014Z,102354.38
2022-10-06T10:32:15.673Z,102358.59
2022-10-06T10:35:12.354Z,102354.31
2022-10-06T10:37:51.593Z,102344.00
2022-10-06T10:40:39.117Z,102346.78
2022-10-06T10:43:21.835Z,102343.31
2022-10-06T10:46:01.801Z,102344.03
2022-10-06T10:48:38.876Z,102351.50
2022-10-06T10:51:16.403Z,102358.78
2022-10-06T10:53:53.157Z,102353.06
2022-10-06T10:56:29.516Z,102360.78
2022-10-06T10:59:08.752Z,102358.38
2022-10-06T11:01:51.965Z,102358.47
2022-10-06T11:04:24.113Z,102374.84
2022-10-06T11:07:23.716Z,102371.50
2022-10-06T11:10:04.996Z,102369.72
2022-10-06T11:12:56.313Z,102373.97
2022-10-06T11:15:45.154Z,102371.59
2022-10-06T11:18:30.954Z,102370.50
2022-10-06T11:21:11.113Z,102373.06
2022-10-06T11:23:54.914Z,102377.53
2022-10-06T11:26:52.440Z,102380.88
2022-10-06T11:29:35.157Z,102374.72
2022-10-06T11:32:20.515Z,102379.84
2022-10-06T11:34:56.034Z,102385.94
2022-10-06T11:37:39.198Z,102394.94
2022-10-06T11:40:34.953Z,102383.47
2022-10-06T11:43:17.409Z,102391.91
2022-10-06T11:46:00.390Z,102394.97
2022-10-06T11:48:35.037Z,102401.75
2022-10-06T11:51:34.033Z,102396.56
2022-10-06T11:54:06.594Z,102382.50
2022-10-06T11:56:42.602Z,102400.88
2022-10-06T11:59:28.756Z,102411.78
2022-10-06T12:02:05.214Z,102401.59
2022-10-06T12:04:37.842Z,102397.88
2022-10-06T12:07:13.352Z,102404.50
2022-10-06T12:09:52.977Z,102407.09
2022-10-06T12:13:31.722Z,102398.41
2022-10-06T12:17:06.047Z,102399.25
2022-10-06T12:19:23.993Z,102393.66
2022-10-06T12:22:04.194Z,102405.03
2022-10-06T12:24:46.234Z,102399.94
2022-10-06T12:27:33.876Z,102406.03
2022-10-06T12:30:17.993Z,102405.88
2022-10-06T12:32:56.159Z,102394.47
2022-10-06T12:35:34.677Z,102404.81
2022-10-06T12:38:07.921Z,102405.28
2022-10-06T12:40:51.997Z,102409.28
2022-10-06T12:43:34.800Z,102406.34
2022-10-06T12:46:16.660Z,102413.88
2022-10-06T12:49:06.080Z,102416.09
2022-10-06T12:51:41.835Z,102413.88
2022-10-06T12:54:20.680Z,102413.50
2022-10-06T12:57:03.712Z,102413.63
2022-10-06T12:59:41.152Z,102409.44
2022-10-06T13:02:21.473Z,102411.47
2022-10-06T13:05:09.995Z,102415.03
2022-10-06T13:08:02.995Z,102416.63
2022-10-06T13:10:36.214Z,102416.19
2022-10-06T13:13:24.715Z,102421.63
2022-10-06T13:16:00.873Z,102431.03
2022-10-06T13:18:34.276Z,102428.97
2022-10-06T13:21:06.837Z,102427.66
2022-10-06T13:23:41.475Z,102426.97
2022-10-06T13:26:23.753Z,102425.09
2022-10-06T13:29:00.194Z,102430.69
2022-10-06T13:31:34.913Z,102426.25
2022-10-06T13:34:09.512Z,102428.25
2022-10-06T13:36:43.552Z,102433.38
2022-10-06T13:39:17.713Z,102442.25
2022-10-06T13:41:53.298Z,102433.56
2022-10-06T13:44:39.357Z,102440.22
2022-10-06T13:47:19.514Z,102446.50
2022-10-06T13:49:57.441Z,102437.13
2022-10-06T13:52:37.283Z,102444.56
2022-10-06T13:55:20.712Z,102444.28
2022-10-06T13:57:54.526Z,102442.94
2022-10-06T14:00:33.673Z,102437.69
2022-10-06T14:03:23.610Z,102439.50
2022-10-06T14:06:09.436Z,102431.19
2022-10-06T14:08:42.519Z,102432.78
2022-10-06T14:11:15.034Z,102437.13
2022-10-06T14:13:54.636Z,102443.75
2022-10-06T14:16:30.954Z,102449.72
2022-10-06T14:19:05.726Z,102447.53
2022-10-06T14:21:42.807Z,102456.72
2022-10-06T14:24:28.603Z,102453.31
2022-10-06T14:27:05.162Z,102460.44
2022-10-06T14:29:38.205Z,102459.44
2022-10-06T14:32:17.401Z,102456.19
2022-10-06T14:34:49.995Z,102462.59
2022-10-06T14:37:22.241Z,102466.38
2022-10-06T14:39:56.413Z,102462.13
2022-10-06T14:42:28.851Z,102462.31
2022-10-06T14:45:01.689Z,102464.53
2022-10-06T14:55:41.243Z,102453.81
2022-10-06T14:58:14.083Z,102462.28
2022-10-06T15:00:47.003Z,102461.59
2022-10-06T15:03:19.324Z,102456.97
2022-10-06T15:06:03.441Z,102471.81
2022-10-06T15:08:35.804Z,102450.19
2022-10-06T15:11:10.403Z,102461.06
2022-10-06T15:13:42.521Z,102462.28
2022-10-06T15:16:14.479Z,102460.63
2022-10-06T15:18:47.322Z,102469.19
2022-10-06T15:21:19.561Z,102464.66
2022-10-06T15:23:52.405Z,102459.34
2022-10-06T15:26:39.441Z,102470.19
2022-10-06T15:29:11.785Z,102473.34
2022-10-06T15:31:44.969Z,102474.78
2022-10-06T15:34:18.194Z,102482.94
2022-10-06T15:36:52.792Z,102477.19
2022-10-06T15:39:26.910Z,102477.00
2022-10-06T15:42:02.222Z,102474.03
2022-10-06T15:44:36.792Z,102474.59
2022-10-06T15:47:10.311Z,102475.88
2022-10-06T15:49:42.479Z,102474.31
2022-10-06T15:52:17.999Z,102478.75
2022-10-06T15:54:50.322Z,102483.47
2022-10-06T15:57:25.698Z,102482.03
2022-10-06T15:59:58.095Z,102478.84
2022-10-06T16:02:35.728Z,102484.41
2022-10-06T16:05:45.376Z,102467.50
2022-10-06T16:08:17.299Z,102476.53
2022-10-06T16:10:53.296Z,102484.81
2022-10-06T16:13:27.774Z,102487.75
2022-10-06T16:16:00.750Z,102490.63
2022-10-06T16:18:34.693Z,102494.25
2022-10-06T16:21:06.933Z,102493.75
2022-10-06T16:23:38.772Z,102495.03
2022-10-06T16:26:11.136Z,102500.50
2022-10-06T16:29:00.174Z,102499.81
2022-10-06T16:31:51.315Z,102496.59
2022-10-06T16:34:23.537Z,102502.78
2022-10-06T16:36:55.651Z,102512.34
2022-10-06T16:39:27.735Z,102504.69
2022-10-06T16:41:59.933Z,102514.41
2022-10-06T16:44:34.532Z,102514.03
2022-10-06T16:47:06.902Z,102511.63
2022-10-06T16:49:38.773Z,102521.31
2022-10-06T16:52:11.029Z,102523.09
2022-10-06T16:54:42.896Z,102523.63
2022-10-06T16:57:15.172Z,102529.38
2022-10-06T16:59:49.696Z,102528.72
2022-10-06T17:02:22.214Z,102525.88
2022-10-06T17:04:54.573Z,102529.59
2022-10-06T17:07:26.892Z,102528.03
2022-10-06T17:10:18.874Z,102536.16
2022-10-06T17:12:50.725Z,102540.41
2022-10-06T17:15:25.226Z,102548.13
2022-10-06T17:17:57.727Z,102541.88
2022-10-06T17:20:29.565Z,102545.84
2022-10-06T17:23:01.647Z,102541.03
2022-10-06T17:25:34.495Z,102545.44
2022-10-06T17:28:07.138Z,102547.97
2022-10-06T17:30:41.990Z,102546.28
2022-10-06T17:33:14.544Z,102547.25
2022-10-06T17:35:46.577Z,102544.97
2022-10-06T17:38:19.123Z,102550.06
2022-10-06T17:40:51.166Z,102546.50
2022-10-06T17:43:23.472Z,102537.22
2022-10-06T17:45:58.270Z,102543.94
2022-10-06T17:48:30.768Z,102539.66
2022-10-06T17:51:03.424Z,102548.03
2022-10-06T17:53:36.523Z,102553.53
2022-10-06T17:56:10.484Z,102548.66
2022-10-06T17:58:44.323Z,102547.41
2022-10-06T18:01:20.416Z,102555.94
2022-10-06T18:03:55.666Z,102558.44
2022-10-06T18:06:29.928Z,102554.00
2022-10-06T18:09:03.163Z,102551.69
2022-10-06T18:11:40.084Z,102557.19
2022-10-06T18:14:14.425Z,102555.03
2022-10-06T18:16:55.709Z,102557.13
2022-10-06T18:19:30.928Z,102563.00
2022-10-06T18:22:05.117Z,102562.81
2022-10-06T18:24:38.273Z,102558.06
2022-10-06T18:27:14.104Z,102556.75
2022-10-06T18:29:46.512Z,102555.34
2022-10-06T18:33:59.425Z,102551.59
2022-10-06T18:38:05.553Z,102562.41
2022-10-06T18:40:37.925Z,102563.28
2022-10-06T18:43:10.028Z,102569.34
2022-10-06T18:45:54.774Z,102563.81
2022-10-06T18:48:42.024Z,102565.31
2022-10-06T18:51:14.506Z,102563.00
2022-10-06T18:53:46.646Z,102566.84
2022-10-06T18:56:20.563Z,102571.88
2022-10-06T18:58:52.725Z,102565.84
2022-10-06T19:01:26.418Z,102566.22
2022-10-06T19:04:05.166Z,102561.59
2022-10-06T19:06:37.743Z,102565.66
2022-10-06T19:09:10.185Z,102573.28
2022-10-06T19:11:50.709Z,102574.25
2022-10-06T19:14:25.384Z,102580.16
2022-10-06T19:16:59.433Z,102579.94
2022-10-06T19:19:35.403Z,102572.47
2022-10-06T19:22:10.143Z,102583.22
2022-10-06T19:24:44.846Z,102580.19
2022-10-06T19:27:21.045Z,102586.31
2022-10-06T19:29:57.086Z,102577.97
2022-10-06T19:32:32.620Z,102593.66
2022-10-06T19:35:10.348Z,102589.50
2022-10-06T19:37:43.707Z,102590.00
2022-10-06T19:40:15.984Z,102588.31
2022-10-06T19:42:49.056Z,102591.84
2022-10-06T19:45:21.409Z,102592.47
2022-10-06T19:47:54.050Z,102599.31
2022-10-06T19:50:28.845Z,102599.31
2022-10-06T19:53:01.592Z,102597.47
2022-10-06T19:55:33.864Z,102602.13
2022-10-06T19:58:06.185Z,102593.31
2022-10-06T20:00:39.225Z,102597.72
2022-10-06T20:03:12.165Z,102607.03
2022-10-06T20:05:46.903Z,102616.44
2022-10-06T20:08:20.893Z,102610.09
2022-10-06T20:10:53.013Z,102618.38
2022-10-06T20:13:25.285Z,102620.69
2022-10-06T20:15:57.332Z,102620.09
2022-10-06T20:18:30.031Z,102619.59
2022-10-06T20:21:05.024Z,102621.31
2022-10-06T20:23:37.544Z,102622.63
2022-10-06T20:26:14.684Z,102615.56
2022-10-06T20:28:47.655Z,102621.78
2022-10-06T20:31:22.913Z,102620.31
2022-10-06T20:33:58.484Z,102622.50
2022-10-06T20:36:35.231Z,102613.69
2022-10-06T20:39:21.725Z,102623.00
2022-10-06T20:41:55.845Z,102624.19
2022-10-06T20:44:28.385Z,102625.91
2022-10-06T20:47:00.445Z,102622.34
2022-10-06T20:49:33.203Z,102617.53
2022-10-06T20:52:10.264Z,102621.66
2022-10-06T20:54:42.712Z,102629.34
2022-10-06T20:57:15.045Z,102627.88
2022-10-06T20:59:49.526Z,102628.94
2022-10-06T21:02:21.644Z,102628.22
2022-10-06T21:04:54.562Z,102622.47
2022-10-06T21:07:29.663Z,102619.25
2022-10-06T21:10:02.086Z,102623.66
2022-10-06T21:12:36.964Z,102623.16
2022-10-06T21:15:10.543Z,102629.63
2022-10-06T21:17:44.477Z,102622.50
2022-10-06T21:20:16.984Z,102622.25
2022-10-06T21:22:52.922Z,102626.41
2022-10-06T21:25:25.311Z,102617.94
2022-10-06T21:28:13.271Z,102619.69
2022-10-06T21:30:56.826Z,102621.47
2022-10-06T21:33:29.365Z,102614.66
2022-10-06T21:36:02.945Z,102614.75
2022-10-06T21:38:41.131Z,102616.69
2022-10-06T21:41:26.083Z,102608.16
2022-10-06T21:43:58.625Z,102600.22
2022-10-06T21:46:33.359Z,102604.00
2022-10-06T21:49:07.064Z,102607.31
2022-10-06T21:51:39.846Z,102608.50
2022-10-06T21:54:15.548Z,102613.03
2022-10-06T21:56:48.626Z,102598.22
2022-10-06T21:59:21.103Z,102608.13
2022-10-06T22:01:53.544Z,102611.09
2022-10-06T22:04:25.643Z,102601.84
2022-10-06T22:06:58.102Z,102599.50
2022-10-06T22:09:33.023Z,102605.78
2022-10-06T22:12:05.245Z,102598.19
2022-10-06T22:14:37.204Z,102601.22
2022-10-06T22:17:09.523Z,102596.38
2022-10-06T22:19:41.723Z,102595.75
2022-10-06T22:22:14.042Z,102596.84
2022-10-06T22:27:52.584Z,102590.56
2022-10-06T22:30:24.712Z,102585.53
2022-10-06T22:32:57.044Z,102583.16
2022-10-06T22:35:29.305Z,102582.00
2022-10-06T22:38:01.690Z,102583.09
2022-10-06T22:40:37.422Z,102580.63
2022-10-06T22:43:09.750Z,102585.13
2022-10-06T22:45:41.703Z,102580.00
2022-10-06T22:48:14.023Z,102578.38
2022-10-06T22:50:46.141Z,102576.16
2022-10-06T22:53:18.642Z,102571.00
2022-10-06T22:55:53.864Z,102580.84
2022-10-06T22:58:26.382Z,102581.84
2022-10-06T23:00:59.493Z,102577.31
2022-10-06T23:03:32.569Z,102572.50
2022-10-06T23:06:04.862Z,102571.78
2022-10-06T23:08:37.703Z,102570.03
2022-10-06T23:11:14.422Z,102568.97
2022-10-06T23:13:48.882Z,102561.13
2022-10-06T23:16:22.488Z,102564.03
2022-10-06T23:18:55.883Z,102559.09
2022-10-06T23:21:28.482Z,102566.50
2022-10-06T23:24:03.362Z,102569.53
2022-10-06T23:26:37.981Z,102565.00
2022-10-06T23:29:10.244Z,102562.75
2022-10-06T23:31:42.341Z,102564.88
2022-10-06T23:34:14.802Z,102561.44
2022-10-06T23:36:46.921Z,102565.94
2022-10-06T23:39:19.604Z,102567.00
2022-10-06T23:41:54.509Z,102558.13
2022-10-06T23:44:27.342Z,102558.13
2022-10-06T23:46:59.381Z,102560.06
2022-10-06T23:49:33.704Z,102564.44
2022-10-06T23:52:05.902Z,102565.41
2022-10-06T23:54:38.361Z,102562.06
2022-10-06T23:57:12.982Z,102560.50
2022-10-06T23:59:45.383Z,102558.66
